Time;durP1;ratioP1;P1;durP2;ratioP2;P2;SDS_P1;SDS_P2;PMS_P1;PMS_P2;Temp;Humidity;BMP_temperature;BMP_pressure;BME280_temperature;BME280_humidity;BME280_pressure;Samples;Min_cycle;Max_cycle;Signal;HPM_P1;HPM_P2
2021/11/22 00:01:14;;;;;;;6.63;4.00;;;;;;;6.16;78.73;100110.22;5007727;28;20056;-63
2021/11/22 00:03:50;;;;;;;;;;;;;;;6.13;78.57;100106.69;5007278;28;20038;-63
2021/11/22 00:06:27;;;;;;;5.82;4.70;;;;;;;6.12;78.39;100118.66;5022759;28;20380;-63
2021/11/22 00:09:04;;;;;;;9.85;5.28;;;;;;;6.10;78.91;100110.00;5022813;28;20038;-63
2021/11/22 00:11:35;;;;;;;7.53;5.53;;;;;;;6.10;78.94;100110.00;5006224;28;20034;-63
2021/11/22 00:14:12;;;;;;;6.95;4.88;;;;;;;6.08;78.35;100112.53;5006559;28;20042;-63
2021/11/22 00:16:44;;;;;;;7.15;4.43;;;;;;;6.08;78.87;100109.94;5006554;28;20042;-63
2021/11/22 00:19:18;;;;;;;;;;;;;;;6.04;78.63;100105.50;5006773;28;20401;-63
2021/11/22 00:21:58;;;;;;;5.55;4.53;;;;;;;6.03;78.70;100108.91;5022968;28;19913;-63
2021/11/22 00:24:38;;;;;;;5.45;4.72;;;;;;;6.02;78.52;100116.56;4990822;28;20058;-63
2021/11/22 00:27:17;;;;;;;6.68;4.97;;;;;;;6.02;78.35;100121.72;5006328;28;20042;-63
2021/11/22 00:29:54;;;;;;;8.73;4.90;;;;;;;6.01;78.40;100120.84;5006161;28;20038;-64
2021/11/22 00:32:28;;;;;;;8.57;5.05;;;;;;;6.01;78.49;100115.69;5006290;28;20039;-63
2021/11/22 00:35:00;;;;;;;9.68;4.93;;;;;;;6.00;78.49;100119.06;5006271;28;20034;-63
2021/11/22 00:37:38;;;;;;;9.23;4.68;;;;;;;6.00;78.58;100123.38;5007430;28;20045;-64
2021/11/22 00:40:13;;;;;;;7.57;4.50;;;;;;;5.99;78.19;100132.75;5007251;28;20038;-64
2021/11/22 00:42:53;;;;;;;7.13;4.85;;;;;;;6.01;78.17;100130.25;5007621;28;20496;-63
2021/11/22 00:45:33;;;;;;;9.93;5.18;;;;;;;6.02;78.81;100125.16;5007249;28;20091;-63
2021/11/22 00:48:10;;;;;;;12.48;5.63;;;;;;;6.03;78.33;100118.34;5005532;28;20091;-63
2021/11/22 00:50:47;;;;;;;8.48;5.45;;;;;;;6.02;78.43;100124.31;5005755;28;20388;-63
2021/11/22 00:53:23;;;;;;;14.25;4.53;;;;;;;6.02;78.58;100134.59;5007202;28;20062;-63
2021/11/22 00:55:54;;;;;;;18.45;4.93;;;;;;;6.02;78.53;100132.88;5007106;28;20041;-62
2021/11/22 00:58:34;;;;;;;16.10;5.88;;;;;;;6.03;78.96;100134.63;4989653;28;20156;-62
2021/11/22 01:01:08;;;;;;;10.50;4.90;;;;;;;6.04;78.77;100143.25;5005767;28;20038;-62
2021/11/22 01:03:44;;;;;;;14.13;5.63;;;;;;;6.04;78.14;100146.69;4999697;28;20038;-63
2021/11/22 01:06:14;;;;;;;9.90;5.75;;;;;;;6.05;78.74;100145.00;4992801;28;20116;-63
2021/11/22 01:08:48;;;;;;;9.48;5.22;;;;;;;6.05;78.86;100163.88;4993671;28;20035;-63
2021/11/22 01:11:16;;;;;;;15.43;5.82;;;;;;;6.05;78.54;100168.16;4993634;28;20038;-63
2021/11/22 01:13:49;;;;;;;13.13;5.82;;;;;;;6.05;78.59;100163.88;4992339;28;20046;-63
2021/11/22 01:16:24;;;;;;;11.57;5.78;;;;;;;6.06;78.72;100159.63;4976442;28;20079;-63
2021/11/22 01:19:02;;;;;;;7.35;4.65;;;;;;;6.07;78.28;100158.81;4992765;28;20398;-63
2021/11/22 01:21:44;;;;;;;14.00;5.93;;;;;;;6.07;78.75;100177.69;4993547;28;20053;-63
2021/11/22 01:24:22;;;;;;;11.13;5.57;;;;;;;6.07;78.50;100175.09;4992175;28;20096;-63
2021/11/22 01:26:58;;;;;;;10.50;5.82;;;;;;;6.07;78.19;100179.38;4976646;28;20436;-63
2021/11/22 01:29:35;;;;;;;10.50;5.47;;;;;;;6.05;78.22;100184.47;4992630;28;20425;-63
2021/11/22 01:32:12;;;;;;;12.52;4.82;;;;;;;6.05;78.77;100202.47;4991994;28;20111;-63
2021/11/22 01:34:45;;;;;;;13.45;5.97;;;;;;;6.06;78.53;100198.22;4993274;28;20042;-63
2021/11/22 01:37:17;;;;;;;16.17;6.75;;;;;;;6.05;78.20;100199.91;4992358;28;20068;-62
2021/11/22 01:39:54;;;;;;;16.35;5.00;;;;;;;6.06;78.42;100204.22;4976288;28;20043;-63
2021/11/22 01:42:26;;;;;;;10.65;5.93;;;;;;;6.06;78.57;100199.06;4992052;28;20551;-63
2021/11/22 01:44:57;;;;;;;14.05;6.20;;;;;;;6.07;78.30;100208.56;4975669;28;20042;-63
2021/11/22 01:47:31;;;;;;;9.57;5.75;;;;;;;6.07;78.45;100216.28;4975542;28;20053;-63
2021/11/22 01:50:06;;;;;;;14.02;6.28;;;;;;;6.07;78.16;100212.84;4993755;28;20077;-63
2021/11/22 01:52:34;;;;;;;22.10;6.97;;;;;;;6.06;78.65;100217.09;4993012;28;20054;-62
2021/11/22 01:55:15;;;;;;;10.82;6.10;;;;;;;6.08;78.34;100220.59;4993193;28;20038;-63
2021/11/22 01:57:51;;;;;;;18.05;6.85;;;;;;;6.08;78.77;100219.72;4991722;28;20573;-63
2021/11/22 02:00:34;;;;;;;13.63;5.32;;;;;;;6.07;78.02;100216.28;4991441;28;20075;-63
2021/11/22 02:03:06;;;;;;;11.48;5.32;;;;;;;6.08;78.79;100224.84;4992775;28;20046;-62
2021/11/22 02:05:41;;;;;;;12.45;5.80;;;;;;;6.07;78.44;100223.13;4991740;28;20042;-63
2021/11/22 02:08:12;;;;;;;9.30;5.00;;;;;;;6.08;78.21;100223.19;4992726;28;20039;-63
2021/11/22 02:10:49;;;;;;;13.30;5.57;;;;;;;6.07;78.46;100236.00;4993197;28;20042;-62
2021/11/22 02:13:25;;;;;;;7.45;4.63;;;;;;;6.09;79.00;100232.66;4993002;28;20030;-62
2021/11/22 02:16:02;;;;;;;9.75;4.57;;;;;;;6.09;78.79;100237.78;4991615;28;20038;-64
2021/11/22 02:18:36;;;;;;;8.63;4.85;;;;;;;6.11;78.58;100245.56;4992661;28;20113;-63
2021/11/22 02:21:04;;;;;;;10.13;4.63;;;;;;;6.10;78.73;100243.81;4992841;28;20071;-62
2021/11/22 02:23:41;;;;;;;12.13;4.50;;;;;;;6.11;78.67;100247.28;4975103;28;20042;-63
2021/11/22 02:26:17;;;;;;;11.13;4.78;;;;;;;6.09;78.69;100250.66;4992650;28;20066;-62
2021/11/22 02:28:51;;;;;;;8.43;5.05;;;;;;;6.09;78.85;100255.81;4991739;28;20034;-63
2021/11/22 02:31:25;;;;;;;6.20;4.05;;;;;;;6.10;78.43;100256.66;4974739;28;20137;-62
2021/11/22 02:34:02;;;;;;;12.35;6.00;;;;;;;6.11;78.42;100261.00;4992810;28;20041;-63
2021/11/22 02:36:33;;;;;;;11.13;4.97;;;;;;;6.10;78.56;100259.25;4992512;28;20050;-63
2021/11/22 02:39:12;;;;;;;11.50;5.28;;;;;;;6.11;78.60;100258.44;4991405;28;20038;-63
2021/11/22 02:41:59;;;;;;;15.48;5.57;;;;;;;6.12;78.47;100262.75;4991140;28;20039;-63
2021/11/22 02:44:39;;;;;;;11.05;5.20;;;;;;;6.13;78.95;100264.50;4974782;28;20079;-62
2021/11/22 02:47:15;;;;;;;13.27;4.65;;;;;;;6.15;78.93;100262.88;4992453;28;20110;-62
2021/11/22 02:49:51;;;;;;;10.57;4.55;;;;;;;6.14;79.02;100267.97;4992185;28;20034;-62
2021/11/22 02:52:25;;;;;;;7.90;4.38;;;;;;;6.14;79.13;100260.25;4990405;28;20054;-63
2021/11/22 02:54:58;;;;;;;5.40;4.05;;;;;;;6.16;78.29;100267.22;4992449;28;20049;-63
2021/11/22 02:57:29;;;;;;;7.35;4.35;;;;;;;6.16;79.00;100268.88;4991092;28;20474;-63
2021/11/22 03:00:13;;;;;;;7.65;4.28;;;;;;;6.14;79.04;100275.69;4975143;28;20033;-63
2021/11/22 03:02:45;;;;;;;12.07;4.95;;;;;;;6.15;78.35;100273.16;4991915;28;20045;-63
2021/11/22 03:05:16;;;;;;;13.30;4.82;;;;;;;6.16;78.53;100269.78;5007813;28;20038;-64
2021/11/22 03:07:50;;;;;;;9.25;4.45;;;;;;;6.16;79.09;100272.34;4990920;28;20042;-64
2021/11/22 03:10:26;;;;;;;;;;;;;;;6.14;78.34;100278.28;4991372;28;20035;-63
2021/11/22 03:13:01;;;;;;;11.27;6.28;;;;;;;6.14;78.50;100280.84;4991702;28;20250;-64
2021/11/22 03:15:33;;;;;;;9.13;6.03;;;;;;;6.15;78.88;100292.91;4991579;28;20060;-63
2021/11/22 03:18:04;;;;;;;8.07;5.95;;;;;;;6.15;79.12;100290.31;4990862;28;20046;-64
2021/11/22 03:20:35;;;;;;;10.30;5.68;;;;;;;6.17;79.01;100289.56;4990993;28;20172;-63
2021/11/22 03:23:08;;;;;;;14.15;6.63;;;;;;;6.16;78.39;100287.81;4990687;28;20078;-63
2021/11/22 03:25:45;;;;;;;11.07;6.03;;;;;;;6.16;78.70;100294.63;4974131;28;20045;-62
2021/11/22 03:28:24;;;;;;;18.25;8.13;;;;;;;6.17;78.86;100298.94;4991603;28;20529;-63
2021/11/22 03:31:01;;;;;;;13.80;7.38;;;;;;;6.14;78.52;100310.03;4991718;28;20042;-63
2021/11/22 03:33:44;;;;;;;13.18;8.10;;;;;;;6.16;78.67;100307.50;4990482;28;20489;-65
2021/11/22 03:36:20;;;;;;;11.32;7.80;;;;;;;6.16;78.65;100317.78;4990380;28;20044;-62
2021/11/22 03:38:55;;;;;;;13.48;7.78;;;;;;;6.16;78.94;100310.97;4990330;28;20520;-63
2021/11/22 03:41:31;;;;;;;13.02;8.43;;;;;;;6.16;79.19;100320.38;4974096;28;20468;-63
2021/11/22 03:44:11;;;;;;;17.48;8.73;;;;;;;6.16;78.92;100326.41;4991399;28;20038;-63
2021/11/22 03:46:50;;;;;;;15.80;9.90;;;;;;;6.16;78.96;100328.09;4990720;28;20047;-63
2021/11/22 03:49:21;;;;;;;16.05;9.55;;;;;;;6.13;78.67;100333.13;4990217;28;20432;-63
2021/11/22 03:51:54;;;;;;;14.10;10.13;;;;;;;6.12;78.65;100344.25;4990221;28;20050;-63
2021/11/22 03:54:25;;;;;;;11.75;7.80;;;;;;;6.12;79.48;100342.53;4990203;28;20066;-64
2021/11/22 03:57:02;;;;;;;13.93;8.70;;;;;;;6.12;78.69;100344.25;4991188;28;20042;-63
2021/11/22 03:59:36;;;;;;;14.98;10.05;;;;;;;6.09;78.91;100356.19;4974212;28;20070;-63
2021/11/22 04:02:13;;;;;;;12.43;8.93;;;;;;;6.12;78.84;100352.84;4991370;28;20502;-63
2021/11/22 04:04:44;;;;;;;12.65;8.68;;;;;;;6.12;78.82;100363.13;4973637;28;20062;-63
2021/11/22 04:07:29;;;;;;;11.30;7.85;;;;;;;6.09;78.93;100365.56;4973954;28;20095;-62
2021/11/22 04:10:09;;;;;;;13.73;8.13;;;;;;;6.13;78.96;100371.75;4991127;28;20045;-62
2021/11/22 04:12:48;;;;;;;10.10;7.95;;;;;;;6.11;79.03;100371.66;4990055;28;20460;-64
2021/11/22 04:15:21;;;;;;;10.50;8.30;;;;;;;6.09;79.34;100376.75;4991011;28;20066;-62
2021/11/22 04:17:55;;;;;;;10.27;8.23;;;;;;;6.07;79.06;100387.81;5005951;28;20050;-63
2021/11/22 04:20:32;;;;;;;12.50;8.35;;;;;;;6.08;79.02;100392.13;4990363;28;20061;-62
2021/11/22 04:23:09;;;;;;;11.45;6.88;;;;;;;6.07;78.60;100398.13;4973380;28;20096;-63
2021/11/22 04:25:38;;;;;;;11.70;7.25;;;;;;;6.07;79.08;100393.84;4990860;28;20031;-63
2021/11/22 04:28:18;;;;;;;14.88;7.88;;;;;;;6.08;78.85;100405.00;4989695;28;20539;-63
2021/11/22 04:30:50;;;;;;;9.45;7.72;;;;;;;6.08;79.25;100405.00;4990895;28;20113;-63
2021/11/22 04:33:23;;;;;;;9.02;6.57;;;;;;;6.06;78.71;100404.06;4973621;28;20129;-63
2021/11/22 04:35:57;;;;;;;13.25;7.07;;;;;;;6.05;78.94;100417.75;4973907;28;20034;-63
2021/11/22 04:38:34;;;;;;;12.95;7.63;;;;;;;6.07;78.71;100416.13;4974236;28;20046;-63
2021/11/22 04:41:18;;;;;;;7.63;6.75;;;;;;;6.06;79.09;100424.66;4993203;28;20038;-63
2021/11/22 04:43:54;;;;;;;12.00;7.13;;;;;;;6.03;78.89;100427.97;4992890;28;20068;-63
2021/11/22 04:46:31;;;;;;;9.40;6.55;;;;;;;6.03;78.86;100432.25;4994104;28;20118;-63
2021/11/22 04:49:00;;;;;;;13.23;7.53;;;;;;;6.03;78.59;100432.25;4994041;28;20552;-64
2021/11/22 04:51:25;;;;;;;11.40;7.40;;;;;;;6.01;79.12;100437.31;4992550;28;20051;-63
2021/11/22 04:54:02;;;;;;;9.23;6.55;;;;;;;6.03;78.73;100435.69;4993871;28;20420;-63
2021/11/22 04:56:41;;;;;;;11.75;7.63;;;;;;;6.05;78.82;100436.63;4992928;28;20039;-63
2021/11/22 04:59:20;;;;;;;10.95;7.05;;;;;;;6.05;79.04;100435.78;4992731;28;20042;-63
2021/11/22 05:01:52;;;;;;;9.93;7.90;;;;;;;6.02;78.52;100433.06;4994025;28;20042;-63
2021/11/22 05:04:28;;;;;;;10.13;8.05;;;;;;;6.03;79.16;100435.69;4993042;28;20112;-63
2021/11/22 05:06:57;;;;;;;13.80;10.02;;;;;;;6.05;78.56;100436.63;4992757;28;20043;-63
2021/11/22 05:09:35;;;;;;;13.02;8.98;;;;;;;6.07;78.78;100440.16;4993704;28;20132;-63
2021/11/22 05:12:09;;;;;;;12.05;8.35;;;;;;;6.05;78.67;100452.06;4993602;28;20125;-63
2021/11/22 05:14:49;;;;;;;14.13;9.45;;;;;;;6.05;79.18;100452.06;4992337;28;20046;-63
2021/11/22 05:17:23;;;;;;;15.68;10.45;;;;;;;6.05;79.09;100456.34;4976479;28;20048;-63
2021/11/22 05:19:59;;;;;;;18.02;12.65;;;;;;;6.05;78.51;100454.66;4992620;28;20034;-63
2021/11/22 05:22:35;;;;;;;20.52;13.35;;;;;;;6.06;78.83;100466.69;4993550;28;20042;-64
2021/11/22 05:25:10;;;;;;;16.35;12.32;;;;;;;6.09;78.81;100460.78;4992346;28;20072;-63
2021/11/22 05:27:41;;;;;;;18.27;13.65;;;;;;;6.09;78.93;100474.56;4992235;28;20409;-63
2021/11/22 05:30:33;;;;;;;22.38;15.55;;;;;;;6.08;79.05;100472.78;4975638;28;20062;-63
2021/11/22 05:33:07;;;;;;;21.55;15.38;;;;;;;6.08;78.86;100479.63;4993349;28;20061;-64
2021/11/22 05:35:39;;;;;;;18.63;14.05;;;;;;;6.09;78.89;100484.84;4993281;28;20134;-63
2021/11/22 05:38:16;;;;;;;25.30;17.02;;;;;;;6.09;79.09;100487.41;4975533;28;20039;-63
2021/11/22 05:40:55;;;;;;;20.48;14.93;;;;;;;6.10;78.84;100493.44;4993251;28;20092;-62
2021/11/22 05:43:26;;;;;;;20.02;15.30;;;;;;;6.13;79.05;100495.28;4993248;28;20104;-64
2021/11/22 05:46:00;;;;;;;23.10;16.45;;;;;;;6.11;78.87;100499.47;4975898;28;20405;-63
2021/11/22 05:48:28;;;;;;;25.23;16.17;;;;;;;6.12;79.43;100506.38;4992023;28;20070;-63
2021/11/22 05:51:07;;;;;;;25.17;16.60;;;;;;;6.10;79.13;100503.72;4993182;28;20144;-63
2021/11/22 05:53:36;;;;;;;25.33;17.25;;;;;;;6.12;79.13;100507.25;4993054;28;20035;-63
2021/11/22 05:56:15;;;;;;;25.10;16.38;;;;;;;6.11;79.09;100513.22;4992964;28;20444;-63
2021/11/22 05:58:46;;;;;;;26.05;16.95;;;;;;;6.12;78.81;100512.41;4991863;28;20077;-63
2021/11/22 06:01:22;;;;;;;23.90;15.95;;;;;;;6.13;78.99;100523.59;4975788;28;20079;-62
2021/11/22 06:03:56;;;;;;;22.85;15.80;;;;;;;6.13;78.64;100519.31;4992879;28;20042;-63
2021/11/22 06:06:27;;;;;;;24.70;17.25;;;;;;;6.11;79.33;100518.34;4992907;28;20038;-62
2021/11/22 06:09:04;;;;;;;19.63;13.98;;;;;;;6.12;78.84;100525.25;4991715;28;20042;-63
2021/11/22 06:11:39;;;;;;;21.92;14.82;;;;;;;6.12;79.37;100534.69;4993315;28;20046;-62
2021/11/22 06:14:18;;;;;;;18.95;13.32;;;;;;;6.11;78.72;100527.78;4992855;28;20393;-63
2021/11/22 06:16:51;;;;;;;19.88;13.70;;;;;;;6.13;78.93;100531.31;4992728;28;20038;-63
2021/11/22 06:19:20;;;;;;;18.75;14.32;;;;;;;6.13;78.89;100533.88;4991519;28;20068;-63
2021/11/22 06:21:54;;;;;;;18.85;14.52;;;;;;;6.11;79.41;100538.06;4976006;28;20039;-62
2021/11/22 06:24:28;;;;;;;19.17;14.70;;;;;;;6.09;79.36;100541.47;4975018;28;20042;-63
2021/11/22 06:27:02;;;;;;;18.65;13.23;;;;;;;6.12;79.15;100545.00;4992658;28;20096;-63
2021/11/22 06:29:33;;;;;;;16.60;12.20;;;;;;;6.10;78.95;100544.91;4991316;28;20041;-63
2021/11/22 06:32:18;;;;;;;19.80;13.40;;;;;;;6.11;79.46;100556.09;4992812;28;20042;-63
2021/11/22 06:34:49;;;;;;;19.15;15.45;;;;;;;6.09;79.29;100558.59;4975263;28;20037;-63
2021/11/22 06:37:25;;;;;;;17.80;12.63;;;;;;;6.09;78.95;100569.78;4975786;28;20718;-63
2021/11/22 06:39:58;;;;;;;17.83;13.25;;;;;;;6.09;78.92;100567.19;4992322;28;20039;-63
2021/11/22 06:42:34;;;;;;;18.20;13.20;;;;;;;6.09;78.87;100577.50;4992348;28;20042;-63
2021/11/22 06:45:13;;;;;;;14.60;12.32;;;;;;;6.10;79.12;100578.34;4992716;28;20091;-63
2021/11/22 06:47:49;;;;;;;15.70;13.10;;;;;;;6.11;79.17;100576.69;4990986;28;20385;-63
2021/11/22 06:50:19;;;;;;;14.32;11.95;;;;;;;6.09;78.92;100584.31;4991016;28;20038;-63
2021/11/22 06:52:50;;;;;;;16.38;12.32;;;;;;;6.12;79.10;100581.00;4991416;28;20142;-62
2021/11/22 06:55:20;;;;;;;17.92;12.90;;;;;;;6.10;79.21;100575.78;4975045;28;20477;-63
2021/11/22 06:57:54;;;;;;;17.40;12.73;;;;;;;6.08;79.23;100580.88;4992178;28;20038;-63
2021/11/22 07:00:25;;;;;;;;;;;;;;;6.07;78.74;100588.53;4992316;28;20038;-63
2021/11/22 07:02:58;;;;;;;16.85;12.35;;;;;;;6.07;79.32;100588.53;4974617;28;19914;-62
2021/11/22 07:05:28;;;;;;;15.40;13.10;;;;;;;6.07;79.50;100588.53;4992177;28;20034;-63
2021/11/22 07:08:04;;;;;;;16.13;11.80;;;;;;;6.07;79.08;100597.13;4991955;28;20481;-63
2021/11/22 07:10:40;;;;;;;13.43;10.93;;;;;;;6.06;78.78;100592.78;4992074;28;20042;-64
2021/11/22 07:13:17;;;;;;;20.10;13.35;;;;;;;6.08;79.02;100601.47;4990150;28;20038;-63
2021/11/22 07:15:48;;;;;;;13.68;11.55;;;;;;;6.09;79.12;100604.91;4974592;28;20046;-62
2021/11/22 07:18:24;;;;;;;15.77;12.63;;;;;;;6.09;79.03;100613.53;4991557;28;20462;-63
2021/11/22 07:20:58;;;;;;;16.25;12.38;;;;;;;6.11;78.75;100620.44;4990381;28;20034;-63
2021/11/22 07:23:36;;;;;;;14.38;12.18;;;;;;;6.10;78.92;100614.38;4974032;28;20038;-62
2021/11/22 07:26:03;;;;;;;17.17;14.18;;;;;;;6.09;79.34;100623.81;4974127;28;20045;-63
2021/11/22 07:28:39;;;;;;;17.67;13.27;;;;;;;6.07;79.23;100630.59;4974803;28;20068;-63
2021/11/22 07:31:13;;;;;;;16.48;12.82;;;;;;;6.08;79.24;100629.78;4991714;28;20125;-63
2021/11/22 07:33:50;;;;;;;;;;;;;;;6.09;78.86;100636.69;4991963;28;20371;-63
2021/11/22 07:36:29;;;;;;;16.40;12.43;;;;;;;6.06;79.00;100652.00;4991554;28;19923;-65
2021/11/22 07:39:02;;;;;;;14.98;13.13;;;;;;;6.04;79.14;100657.88;4991508;28;20039;-64
2021/11/22 07:41:33;;;;;;;16.77;12.82;;;;;;;6.00;78.84;100662.00;4991650;28;20042;-63
2021/11/22 07:44:04;;;;;;;16.60;12.20;;;;;;;6.03;79.18;100658.69;4990275;28;20037;-64
2021/11/22 07:46:40;;;;;;;14.90;12.30;;;;;;;6.03;78.88;100674.13;4991433;28;20031;-64
2021/11/22 07:49:11;;;;;;;;;;;;;;;6.02;78.65;100674.94;4991536;28;20077;-63
2021/11/22 07:51:44;;;;;;;17.23;12.60;;;;;;;6.01;79.12;100683.47;5006245;28;19925;-64
2021/11/22 07:54:15;;;;;;;14.13;11.73;;;;;;;6.01;78.87;100696.34;4991440;28;20035;-63
2021/11/22 07:56:52;;;;;;;13.50;11.18;;;;;;;6.00;78.82;100687.72;4989951;28;20493;-63
2021/11/22 07:59:26;;;;;;;17.90;13.82;;;;;;;5.99;78.96;100697.94;4991430;28;20042;-64
2021/11/22 08:01:57;;;;;;;16.55;12.35;;;;;;;6.00;79.07;100703.16;4990116;28;20073;-63
2021/11/22 08:04:33;;;;;;;19.30;12.57;;;;;;;6.00;78.82;100702.31;4991298;28;20552;-64
2021/11/22 08:07:16;;;;;;;16.52;13.07;;;;;;;6.00;78.84;100703.16;4991346;28;20038;-63
2021/11/22 08:10:02;;;;;;;16.40;12.60;;;;;;;5.99;79.24;100716.84;4990012;28;20515;-65
2021/11/22 08:12:38;;;;;;;14.82;12.55;;;;;;;5.99;78.90;100711.69;4973440;28;20528;-63
2021/11/22 08:15:29;;;;;;;14.85;11.25;;;;;;;5.99;78.54;100710.81;4994325;28;20065;-63
2021/11/22 08:18:13;;;;;;;16.00;12.32;;;;;;;5.99;78.91;100722.00;4993517;28;20039;-63
2021/11/22 08:20:41;;;;;;;14.00;11.90;;;;;;;5.97;78.87;100728.75;5026052;28;20046;-63
2021/11/22 08:23:20;;;;;;;14.65;13.07;;;;;;;5.98;78.78;100743.38;4994634;28;20042;-63
2021/11/22 08:25:56;;;;;;;14.93;11.93;;;;;;;5.99;78.62;100737.44;4992929;28;20100;-62
2021/11/22 08:28:30;;;;;;;17.30;11.95;;;;;;;5.97;78.89;100739.06;4993458;28;20053;-63
2021/11/22 08:31:07;;;;;;;13.63;11.63;;;;;;;5.97;78.65;100741.63;4976876;28;20424;-63
2021/11/22 08:33:43;;;;;;;14.05;11.80;;;;;;;5.96;79.24;100745.00;4977041;28;20035;-62
2021/11/22 08:36:25;;;;;;;16.90;11.60;;;;;;;5.98;78.95;100748.53;4994235;28;20035;-62
2021/11/22 08:39:05;;;;;;;13.18;11.23;;;;;;;5.99;78.98;100754.53;4976256;28;20050;-62
2021/11/22 08:41:47;;;;;;;14.52;10.85;;;;;;;5.98;79.22;100763.06;4994371;28;20038;-63
2021/11/22 08:44:26;;;;;;;13.45;11.50;;;;;;;5.96;78.79;100768.16;4993977;28;20049;-63
2021/11/22 08:47:03;;;;;;;16.50;11.93;;;;;;;5.95;78.79;100771.53;4976934;28;20034;-63
2021/11/22 08:49:48;;;;;;;15.23;11.70;;;;;;;5.92;78.98;100776.53;4994008;28;20125;-62
2021/11/22 08:52:22;;;;;;;15.32;11.13;;;;;;;5.93;79.15;100783.44;5008892;28;20414;-62
2021/11/22 08:54:59;;;;;;;16.67;12.50;;;;;;;5.92;79.12;100792.84;4992955;28;20038;-62
2021/11/22 08:57:36;;;;;;;20.65;12.68;;;;;;;5.91;79.21;100792.78;4994001;28;20042;-62
2021/11/22 09:00:17;;;;;;;17.20;13.27;;;;;;;5.92;79.11;100794.56;4992658;28;20035;-63
2021/11/22 09:02:52;;;;;;;18.90;12.73;;;;;;;5.92;79.22;100807.41;4994231;28;20428;-63
2021/11/22 09:05:34;;;;;;;18.55;14.48;;;;;;;5.92;78.90;100804.84;4993790;28;20050;-63
2021/11/22 09:08:03;;;;;;;19.77;15.05;;;;;;;5.92;78.78;100817.72;4993860;28;20089;-62
2021/11/22 09:10:39;;;;;;;18.30;14.45;;;;;;;5.93;79.02;100817.78;4992800;28;20034;-63
2021/11/22 09:13:11;;;;;;;;;;;;;;;5.94;78.93;100826.38;4992890;28;20038;-63
2021/11/22 09:15:45;;;;;;;17.02;13.70;;;;;;;5.92;79.10;100826.28;4992551;28;20020;-63
2021/11/22 09:18:21;;;;;;;18.85;15.38;;;;;;;5.94;78.76;100839.25;4977008;28;20034;-63
2021/11/22 09:20:57;;;;;;;23.08;15.43;;;;;;;5.93;78.80;100837.50;4992433;28;20042;-63
2021/11/22 09:23:31;;;;;;;21.90;16.70;;;;;;;5.93;79.46;100847.78;4993993;28;20038;-63
2021/11/22 09:26:05;;;;;;;21.25;18.02;;;;;;;5.93;79.01;100848.66;4992366;28;20058;-62
2021/11/22 09:28:39;;;;;;;26.38;18.30;;;;;;;5.93;79.01;100845.19;4992284;28;20038;-62
2021/11/22 09:31:10;;;;;;;21.30;17.63;;;;;;;5.95;78.90;100849.59;4976375;28;20104;-62
2021/11/22 09:33:44;;;;;;;22.15;18.80;;;;;;;5.97;79.36;100859.09;4993288;28;20383;-63
2021/11/22 09:36:17;;;;;;;24.42;19.42;;;;;;;5.96;79.22;100853.06;4993345;28;20065;-63
2021/11/22 09:38:50;;;;;;;24.63;19.60;;;;;;;5.96;79.04;100858.22;4976290;28;20046;-63
2021/11/22 09:41:20;;;;;;;26.60;20.38;;;;;;;5.96;79.02;100847.94;4975619;28;20069;-63
2021/11/22 09:43:56;;;;;;;29.52;21.05;;;;;;;5.93;79.37;100856.38;4993260;28;20088;-63
2021/11/22 09:46:27;;;;;;;24.73;20.80;;;;;;;5.95;79.30;100861.59;5025419;28;20458;-62
2021/11/22 09:49:01;;;;;;;26.20;20.55;;;;;;;5.95;79.20;100857.31;4976293;28;20038;-63
2021/11/22 09:51:34;;;;;;;25.20;20.33;;;;;;;5.98;79.11;100856.59;4975556;28;20054;-62
2021/11/22 09:54:08;;;;;;;24.58;20.40;;;;;;;5.98;79.20;100860.84;4975698;28;20091;-62
2021/11/22 09:56:39;;;;;;;31.65;22.77;;;;;;;5.97;79.01;100852.28;4992951;28;20058;-62
2021/11/22 09:59:05;;;;;;;27.98;21.33;;;;;;;5.96;78.85;100855.66;4976256;28;20439;-62
2021/11/22 10:01:34;;;;;;;24.35;20.13;;;;;;;5.95;79.06;100859.03;4992749;28;20038;-62
2021/11/22 10:04:08;;;;;;;28.63;21.77;;;;;;;5.95;78.49;100861.59;4992998;28;20049;-62
2021/11/22 10:06:47;;;;;;;33.83;21.67;;;;;;;5.93;78.91;100860.66;4992951;28;20483;-62
2021/11/22 10:09:32;;;;;;;28.25;20.80;;;;;;;5.91;78.99;100869.97;4975398;28;20505;-62
2021/11/22 10:12:25;;;;;;;26.67;21.00;;;;;;;5.92;79.17;100876.88;4975656;28;20037;-62
2021/11/22 10:15:02;;;;;;;27.00;21.00;;;;;;;5.92;78.65;100876.88;4992835;28;20049;-63
2021/11/22 10:17:40;;;;;;;29.80;22.15;;;;;;;5.90;79.03;100873.34;4992668;28;20047;-63
2021/11/22 10:20:21;;;;;;;29.92;21.20;;;;;;;5.89;78.72;100877.63;4993064;28;20042;-63
2021/11/22 10:23:06;;;;;;;27.40;21.85;;;;;;;5.89;78.87;100876.72;4975118;28;20531;-62
2021/11/22 10:25:42;;;;;;;25.77;22.10;;;;;;;5.90;79.12;100876.81;4991499;28;20039;-63
2021/11/22 10:28:20;;;;;;;29.35;21.85;;;;;;;5.92;78.82;100876.88;4991430;28;20057;-63
2021/11/22 10:30:58;;;;;;;28.33;22.75;;;;;;;5.90;78.73;100870.78;4975638;28;20125;-63
2021/11/22 10:33:47;;;;;;;31.10;23.35;;;;;;;5.93;78.88;100883.81;4992584;28;20030;-62
2021/11/22 10:36:20;;;;;;;31.00;21.55;;;;;;;5.94;78.41;100880.41;4991376;28;20038;-63
2021/11/22 10:38:55;;;;;;;30.93;22.67;;;;;;;5.95;79.00;100882.19;4992895;28;20030;-63
2021/11/22 10:41:32;;;;;;;25.35;20.55;;;;;;;5.97;78.47;100893.44;4991079;28;20041;-63
2021/11/22 10:44:16;;;;;;;35.40;21.90;;;;;;;5.97;78.52;100895.13;4992682;28;20103;-64
2021/11/22 10:46:54;;;;;;;29.30;23.65;;;;;;;5.96;78.90;100889.09;4992223;28;20137;-63
2021/11/22 10:49:32;;;;;;;27.42;22.52;;;;;;;5.97;78.67;100887.41;4991946;28;20042;-63
2021/11/22 10:52:16;;;;;;;31.60;23.23;;;;;;;5.95;78.90;100892.47;4992413;28;20057;-63
2021/11/22 10:55:11;;;;;;;24.42;19.55;;;;;;;5.92;78.28;100895.75;4992501;28;20034;-63
2021/11/22 10:57:48;;;;;;;28.13;22.40;;;;;;;5.94;78.45;100895.84;4985923;28;20100;-63
2021/11/22 11:00:34;;;;;;;26.20;21.73;;;;;;;5.95;79.03;100902.78;4992642;28;20039;-63
2021/11/22 11:03:06;;;;;;;26.83;20.67;;;;;;;5.95;78.56;100895.06;4974627;28;20064;-62
2021/11/22 11:05:37;;;;;;;28.13;20.33;;;;;;;5.96;78.62;100896.81;4974444;28;20493;-62
2021/11/22 11:08:12;;;;;;;29.95;22.02;;;;;;;5.95;78.55;100905.34;4974950;28;20070;-63
2021/11/22 11:10:50;;;;;;;26.40;21.08;;;;;;;5.92;78.98;100908.63;5007296;28;20042;-63
2021/11/22 11:13:21;;;;;;;24.27;20.35;;;;;;;5.94;78.72;100906.16;4991754;28;20034;-63
2021/11/22 11:16:06;;;;;;;28.13;21.50;;;;;;;5.96;78.68;100914.84;4974379;28;20045;-64
2021/11/22 11:18:38;;;;;;;24.50;20.52;;;;;;;5.95;78.34;100908.78;5023485;28;20052;-63
2021/11/22 11:21:09;;;;;;;26.05;20.58;;;;;;;5.95;78.81;100915.63;4974277;28;20077;-62
2021/11/22 11:23:35;;;;;;;27.35;20.52;;;;;;;5.95;78.72;100913.94;4974233;28;20043;-62
2021/11/22 11:26:01;;;;;;;30.20;22.23;;;;;;;5.98;79.08;100920.03;4991605;28;20080;-63
2021/11/22 11:28:27;;;;;;;27.38;20.48;;;;;;;6.00;78.58;100926.19;4990276;28;20481;-62
2021/11/22 11:30:52;;;;;;;26.90;20.50;;;;;;;6.00;78.97;100927.06;4991851;28;20049;-62
2021/11/22 11:33:18;;;;;;;25.13;19.85;;;;;;;6.01;78.45;100928.81;4991665;28;20063;-62
2021/11/22 11:35:46;;;;;;;32.60;21.73;;;;;;;6.01;78.48;100927.94;4991512;28;20638;-63
2021/11/22 11:38:20;;;;;;;23.85;20.02;;;;;;;5.99;78.73;100925.28;5006477;28;20045;-62
2021/11/22 11:41:08;;;;;;;26.05;20.20;;;;;;;6.01;78.21;100928.81;4974124;28;20045;-62
2021/11/22 11:44:06;;;;;;;25.55;20.40;;;;;;;6.02;78.76;100930.59;4973838;28;20056;-63
2021/11/22 11:46:57;;;;;;;24.52;19.67;;;;;;;6.00;78.80;100923.59;4974256;28;20043;-63
2021/11/22 11:49:34;;;;;;;25.17;20.13;;;;;;;6.01;78.90;100927.94;5009733;28;20078;-63
2021/11/22 11:52:20;;;;;;;24.80;20.75;;;;;;;6.01;78.54;100933.09;4991152;28;20077;-63
2021/11/22 11:54:45;;;;;;;25.75;20.70;;;;;;;6.02;78.98;100929.72;4991480;28;20041;-63
2021/11/22 11:57:11;;;;;;;26.92;20.52;;;;;;;6.01;78.73;100923.66;4990264;28;20038;-64
2021/11/22 11:59:42;;;;;;;27.52;21.88;;;;;;;6.02;78.52;100922.88;4991273;28;20034;-64
2021/11/22 12:02:13;;;;;;;25.70;20.70;;;;;;;6.02;78.85;100922.00;4991221;28;20057;-63